createdAt,value
2019-04-20T00:01:26.749Z,56.90
2019-04-20T00:03:56.938Z,56.80
2019-04-20T00:06:31.698Z,57.20
2019-04-20T00:09:13.987Z,57.10
2019-04-20T00:11:55.663Z,57.20
2019-04-20T00:14:24.013Z,57.40
2019-04-20T00:16:52.774Z,57.60
2019-04-20T00:19:31.868Z,57.80
2019-04-20T00:22:10.149Z,57.80
2019-04-20T00:24:51.606Z,57.90
2019-04-20T00:27:42.773Z,57.90
2019-04-20T00:30:26.422Z,58.00
2019-04-20T00:32:46.907Z,58.00
2019-04-20T00:35:08.727Z,58.50
2019-04-20T00:37:42.917Z,58.90
2019-04-20T00:40:17.039Z,59.00
2019-04-20T00:42:53.851Z,59.30
2019-04-20T00:45:28.711Z,59.20
2019-04-20T00:48:06.024Z,59.10
2019-04-20T00:50:49.096Z,58.70
2019-04-20T00:53:21.624Z,58.80
2019-04-20T00:55:44.688Z,59.20
2019-04-20T00:58:27.344Z,59.50
2019-04-20T01:01:12.839Z,60.40
2019-04-20T01:03:43.484Z,60.50
2019-04-20T01:06:46.677Z,61.10
2019-04-20T01:09:20.361Z,61.30
2019-04-20T01:11:54.483Z,63.90
2019-04-20T01:14:36.122Z,67.60
2019-04-20T01:17:11.157Z,69.60
2019-04-20T01:19:37.814Z,71.20
2019-04-20T01:22:16.216Z,74.10
2019-04-20T01:24:48.179Z,75.90
2019-04-20T01:27:32.474Z,77.70
2019-04-20T01:30:07.469Z,79.90
2019-04-20T01:32:49.745Z,81.60
2019-04-20T01:35:22.661Z,82.00
2019-04-20T01:37:57.424Z,82.90
2019-04-20T01:40:14.844Z,84.10
2019-04-20T01:42:48.837Z,84.70
2019-04-20T01:45:27.860Z,85.70
2019-04-20T01:47:59.453Z,86.50
2019-04-20T01:50:34.950Z,87.70
2019-04-20T01:53:16.725Z,88.10
2019-04-20T01:56:00.016Z,87.80
2019-04-20T01:58:58.511Z,88.60
2019-04-20T02:01:25.951Z,88.80
2019-04-20T02:04:03.116Z,89.60
2019-04-20T02:06:42.615Z,90.00
2019-04-20T02:09:16.758Z,90.70
2019-04-20T02:11:49.792Z,91.00
2019-04-20T02:14:30.780Z,91.10
2019-04-20T02:17:06.545Z,91.60
2019-04-20T02:19:50.178Z,91.70
2019-04-20T02:22:17.269Z,92.10
2019-04-20T02:24:40.651Z,92.60
2019-04-20T02:27:14.685Z,92.70
2019-04-20T02:30:13.865Z,92.70
2019-04-20T02:33:07.507Z,92.90
2019-04-20T02:36:11.059Z,93.00
2019-04-20T02:39:13.394Z,93.30
2019-04-20T02:41:35.991Z,93.50
2019-04-20T02:44:18.066Z,93.90
2019-04-20T02:46:45.293Z,94.30
2019-04-20T02:49:19.643Z,94.50
2019-04-20T02:51:52.648Z,94.80
2019-04-20T02:54:18.565Z,94.90
2019-04-20T02:59:54.106Z,95.20
2019-04-20T03:01:54.702Z,95.40
2019-04-20T03:04:23.448Z,95.70
2019-04-20T03:07:05.242Z,96.00
2019-04-20T03:09:40.479Z,96.00
2019-04-20T03:12:16.999Z,96.20
2019-04-20T03:14:45.004Z,96.20
2019-04-20T03:17:29.712Z,96.30
2019-04-20T03:19:52.535Z,96.60
2019-04-20T03:22:51.219Z,96.90
2019-04-20T03:25:22.545Z,97.00
2019-04-20T03:28:00.918Z,97.20
2019-04-20T03:31:20.829Z,97.30
2019-04-20T03:33:31.376Z,97.60
2019-04-20T03:36:07.492Z,97.70
2019-04-20T03:38:29.566Z,97.70
2019-04-20T03:40:56.482Z,97.80
2019-04-20T03:43:18.152Z,98.10
2019-04-20T03:45:57.976Z,98.20
2019-04-20T03:48:40.925Z,98.20
2019-04-20T03:51:25.097Z,98.40
2019-04-20T03:54:08.591Z,98.00
2019-04-20T03:57:27.194Z,98.70
2019-04-20T04:00:00.692Z,98.80
2019-04-20T04:05:32.497Z,98.30
2019-04-20T04:08:00.085Z,99.10
2019-04-20T04:10:35.320Z,99.10
2019-04-20T04:13:18.882Z,99.20
2019-04-20T04:15:57.578Z,99.40
2019-04-20T04:18:33.300Z,99.50
2019-04-20T04:21:07.967Z,99.70
2019-04-20T04:23:48.998Z,99.90
2019-04-20T04:26:27.059Z,99.90
2019-04-20T04:29:08.300Z,99.90
2019-04-20T04:31:53.521Z,99.90
2019-04-20T04:34:14.732Z,99.90
2019-04-20T04:36:53.758Z,99.90
2019-04-20T04:39:27.466Z,99.90
2019-04-20T04:42:11.648Z,99.90
2019-04-20T04:44:30.246Z,99.90
2019-04-20T04:46:57.633Z,99.90
2019-04-20T04:49:31.370Z,99.90
2019-04-20T04:52:06.169Z,99.90
2019-04-20T04:54:44.598Z,99.90
2019-04-20T04:57:09.485Z,99.90
2019-04-20T04:59:42.645Z,99.90
2019-04-20T05:02:15.971Z,99.80
2019-04-20T05:05:32.426Z,99.70
2019-04-20T05:07:57.631Z,99.70
2019-04-20T05:10:20.647Z,99.40
2019-04-20T05:12:54.797Z,99.50
2019-04-20T05:15:42.427Z,99.40
2019-04-20T05:18:28.521Z,99.30
2019-04-20T05:20:58.857Z,99.30
2019-04-20T05:23:32.004Z,99.30
2019-04-20T05:26:38.511Z,99.40
2019-04-20T05:28:59.089Z,99.20
2019-04-20T05:31:36.365Z,99.30
2019-04-20T05:34:25.551Z,99.20
2019-04-20T05:36:57.414Z,98.80
2019-04-20T05:39:32.629Z,98.50
2019-04-20T05:42:02.981Z,98.20
2019-04-20T05:44:47.170Z,97.80
2019-04-20T05:47:16.988Z,97.70
2019-04-20T05:49:50.175Z,97.40
2019-04-20T05:52:35.176Z,97.30
2019-04-20T05:55:02.966Z,96.90
2019-04-20T05:57:40.133Z,96.50
2019-04-20T06:00:14.174Z,96.20
2019-04-20T06:02:45.157Z,96.00
2019-04-20T06:05:23.906Z,95.80
2019-04-20T06:07:53.460Z,95.30
2019-04-20T06:10:31.865Z,95.00
2019-04-20T06:13:07.509Z,94.90
2019-04-20T06:15:53.910Z,94.60
2019-04-20T06:18:25.290Z,94.00
2019-04-20T06:21:13.670Z,94.10
2019-04-20T06:29:02.907Z,92.60
2019-04-20T06:31:35.580Z,90.70
2019-04-20T06:34:30.335Z,89.80
2019-04-20T06:36:55.840Z,89.40
2019-04-20T06:44:57.789Z,84.10
2019-04-20T06:47:18.904Z,83.60
2019-04-20T06:49:52.985Z,83.80
2019-04-20T06:52:49.179Z,83.20
2019-04-20T06:55:30.554Z,82.90
2019-04-20T06:58:01.027Z,81.30
2019-04-20T07:00:39.619Z,80.40
2019-04-20T07:03:17.786Z,78.50
2019-04-20T07:05:47.800Z,78.40
2019-04-20T07:08:37.339Z,77.00
2019-04-20T07:10:59.363Z,75.50
2019-04-20T07:13:23.996Z,76.10
2019-04-20T07:16:21.345Z,74.00
2019-04-20T07:19:24.132Z,72.80
2019-04-20T07:22:33.494Z,71.00
2019-04-20T07:24:56.450Z,71.00
2019-04-20T07:27:29.548Z,69.60
2019-04-20T07:30:06.309Z,69.20
2019-04-20T07:32:49.847Z,68.50
2019-04-20T07:35:14.488Z,67.80
2019-04-20T07:40:24.407Z,66.80
2019-04-20T07:42:58.986Z,65.80
2019-04-20T07:45:33.235Z,64.70
2019-04-20T07:48:18.011Z,64.80
2019-04-20T07:50:38.102Z,65.00
2019-04-20T07:53:17.146Z,65.60
2019-04-20T07:56:02.462Z,65.10
2019-04-20T07:58:22.839Z,65.70
2019-04-20T08:01:16.631Z,64.70
2019-04-20T08:03:55.720Z,64.70
2019-04-20T08:06:20.072Z,63.10
2019-04-20T08:09:05.657Z,61.60
2019-04-20T08:11:46.928Z,59.50
2019-04-20T08:14:19.240Z,58.50
2019-04-20T08:17:09.709Z,57.80
2019-04-20T08:19:23.490Z,56.90
2019-04-20T08:21:58.596Z,56.10
2019-04-20T08:24:32.857Z,55.60
2019-04-20T08:27:03.857Z,55.20
2019-04-20T08:29:51.430Z,56.10
2019-04-20T08:32:50.650Z,54.90
2019-04-20T08:35:31.999Z,55.90
2019-04-20T08:38:24.139Z,55.50
2019-04-20T08:40:43.743Z,55.70
2019-04-20T08:43:32.683Z,55.20
2019-04-20T08:45:57.089Z,55.60
2019-04-20T08:48:31.434Z,55.60
2019-04-20T08:51:02.358Z,54.20
2019-04-20T08:53:36.903Z,53.20
2019-04-20T08:56:03.295Z,54.00
2019-04-20T08:58:25.039Z,53.10
2019-04-20T09:01:02.038Z,54.20
2019-04-20T09:03:46.240Z,53.30
2019-04-20T09:06:25.316Z,52.50
2019-04-20T09:09:17.370Z,53.40
2019-04-20T09:11:49.299Z,53.00
2019-04-20T09:14:21.389Z,52.30
2019-04-20T09:17:07.266Z,51.20
2019-04-20T09:19:46.976Z,51.10
2019-04-20T09:22:44.089Z,49.70
2019-04-20T09:28:11.542Z,49.00
2019-04-20T09:30:50.493Z,48.50
2019-04-20T09:33:48.475Z,48.30
2019-04-20T09:36:22.576Z,48.20
2019-04-20T09:39:11.504Z,47.50
2019-04-20T09:42:05.071Z,46.80
2019-04-20T09:44:31.508Z,44.60
2019-04-20T09:47:02.963Z,44.60
2019-04-20T09:49:46.095Z,45.00
2019-04-20T09:52:21.178Z,43.70
2019-04-20T09:55:00.426Z,42.90
2019-04-20T09:57:37.973Z,43.90
2019-04-20T10:00:12.157Z,41.80
2019-04-20T10:02:32.790Z,42.10
2019-04-20T10:05:05.318Z,41.90
2019-04-20T10:07:40.162Z,42.90
2019-04-20T10:10:22.665Z,40.30
2019-04-20T10:12:48.051Z,40.20
2019-04-20T10:15:23.397Z,39.50
2019-04-20T10:17:56.122Z,40.80
2019-04-20T10:20:32.824Z,39.40
2019-04-20T10:23:04.655Z,41.10
2019-04-20T10:25:38.445Z,41.30
2019-04-20T10:28:11.811Z,41.20
2019-04-20T10:30:44.826Z,40.90
2019-04-20T10:33:19.567Z,39.80
2019-04-20T10:35:53.917Z,40.00
2019-04-20T10:38:33.975Z,38.20
2019-04-20T10:41:13.010Z,37.20
2019-04-20T10:43:39.041Z,35.40
2019-04-20T10:46:13.180Z,35.10
2019-04-20T10:48:49.878Z,33.40
2019-04-20T10:51:21.789Z,33.50
2019-04-20T10:53:56.095Z,33.30
2019-04-20T10:56:29.519Z,33.30
2019-04-20T10:59:03.435Z,33.40
2019-04-20T11:01:37.850Z,35.30
2019-04-20T11:04:10.835Z,34.00
2019-04-20T11:06:44.746Z,33.00
2019-04-20T11:09:18.490Z,32.20
2019-04-20T11:11:52.397Z,31.10
2019-04-20T11:14:31.382Z,30.00
2019-04-20T11:17:00.333Z,30.30
2019-04-20T11:19:33.595Z,29.40
2019-04-20T11:22:06.706Z,30.30
2019-04-20T11:24:40.547Z,29.90
2019-04-20T11:27:14.276Z,28.70
2019-04-20T11:29:47.261Z,28.40
2019-04-20T11:32:20.242Z,28.10
2019-04-20T11:34:53.321Z,26.40
2019-04-20T11:37:26.819Z,26.00
2019-04-20T11:40:01.188Z,25.40
2019-04-20T11:42:35.370Z,26.20
2019-04-20T11:45:08.909Z,26.50
2019-04-20T11:47:43.268Z,27.20
2019-04-20T11:50:17.812Z,27.20
2019-04-20T11:52:51.503Z,26.70
2019-04-20T11:55:24.513Z,26.00
2019-04-20T11:57:58.279Z,26.00
2019-04-20T12:00:46.963Z,25.80
2019-04-20T12:03:37.864Z,25.10
2019-04-20T12:06:07.027Z,25.70
2019-04-20T12:08:41.027Z,25.50
2019-04-20T12:11:30.210Z,25.50
2019-04-20T12:13:50.299Z,24.80
2019-04-20T12:16:23.626Z,24.70
2019-04-20T12:18:56.973Z,25.30
2019-04-20T12:21:30.725Z,25.00
2019-04-20T12:24:04.485Z,26.10
2019-04-20T12:26:38.655Z,25.20
2019-04-20T12:29:11.956Z,25.30
2019-04-20T12:31:51.075Z,26.50
2019-04-20T12:34:20.404Z,26.20
2019-04-20T12:36:53.342Z,25.30
2019-04-20T12:39:27.016Z,25.60
2019-04-20T12:42:03.962Z,25.60
2019-04-20T12:44:35.488Z,25.40
2019-04-20T12:47:08.708Z,24.20
2019-04-20T12:49:43.351Z,23.40
2019-04-20T12:52:16.670Z,23.60
2019-04-20T12:54:50.452Z,24.00
2019-04-20T12:57:24.772Z,23.20
2019-04-20T12:59:57.611Z,23.40
2019-04-20T13:02:31.458Z,24.30
2019-04-20T13:05:07.222Z,23.90
2019-04-20T13:07:45.559Z,23.40
2019-04-20T13:10:15.952Z,23.60
2019-04-20T13:13:04.712Z,23.50
2019-04-20T13:15:58.391Z,24.00
2019-04-20T13:18:45.352Z,23.80
2019-04-20T13:21:19.012Z,23.60
2019-04-20T13:23:53.157Z,23.30
2019-04-20T13:26:26.992Z,23.00
2019-04-20T13:29:00.997Z,23.00
2019-04-20T13:31:34.092Z,23.20
2019-04-20T13:34:07.561Z,23.70
2019-04-20T13:36:40.579Z,23.90
2019-04-20T13:39:14.303Z,22.90
2019-04-20T13:42:02.416Z,23.00
2019-04-20T13:44:22.144Z,23.10
2019-04-20T13:46:54.990Z,23.30
2019-04-20T13:49:29.147Z,22.60
2019-04-20T13:52:02.541Z,22.50
2019-04-20T13:54:35.849Z,22.70
2019-04-20T13:57:10.180Z,23.60
2019-04-20T13:59:50.030Z,22.60
2019-04-20T14:02:40.760Z,22.20
2019-04-20T14:05:16.850Z,22.30
2019-04-20T14:07:51.366Z,22.00
2019-04-20T14:10:24.509Z,21.80
2019-04-20T14:13:03.350Z,22.20
2019-04-20T14:15:33.221Z,21.60
2019-04-20T14:18:06.973Z,21.70
2019-04-20T14:20:40.300Z,22.60
2019-04-20T14:23:14.836Z,21.90
2019-04-20T14:25:49.132Z,20.90
2019-04-20T14:28:23.005Z,20.60
2019-04-20T14:30:56.191Z,21.60
2019-04-20T14:33:30.667Z,21.30
2019-04-20T14:36:05.081Z,21.30
2019-04-20T14:38:38.354Z,21.60
2019-04-20T14:41:12.603Z,21.40
2019-04-20T14:43:46.857Z,21.60
2019-04-20T14:46:20.970Z,21.30
2019-04-20T14:48:54.608Z,21.40
2019-04-20T14:51:27.939Z,21.30
2019-04-20T14:54:01.394Z,21.90
2019-04-20T14:56:35.816Z,22.20
2019-04-20T14:59:31.688Z,21.90
2019-04-20T15:02:13.130Z,21.20
2019-04-20T15:04:47.318Z,21.70
2019-04-20T15:07:20.568Z,22.10
2019-04-20T15:09:54.974Z,21.90
2019-04-20T15:12:39.462Z,21.90
2019-04-20T15:15:03.216Z,21.10
2019-04-20T15:17:41.791Z,20.40
2019-04-20T15:20:29.778Z,20.00
2019-04-20T15:23:09.617Z,20.30
2019-04-20T15:25:42.595Z,20.20
2019-04-20T15:28:16.497Z,20.30
2019-04-20T15:30:49.965Z,21.40
2019-04-20T15:33:23.138Z,22.70
2019-04-20T15:35:55.960Z,23.30
2019-04-20T15:38:29.172Z,23.10
2019-04-20T15:41:02.994Z,23.50
2019-04-20T15:43:37.305Z,23.80
2019-04-20T15:46:10.564Z,24.00
2019-04-20T15:48:43.998Z,23.90
2019-04-20T15:51:17.335Z,24.10
2019-04-20T15:53:51.445Z,24.10
2019-04-20T15:56:24.918Z,23.50
2019-04-20T15:58:58.731Z,23.50
2019-04-20T16:01:36.605Z,23.50
2019-04-20T16:04:36.119Z,23.50
2019-04-20T16:07:08.444Z,23.40
2019-04-20T16:09:42.159Z,24.10
2019-04-20T16:12:15.204Z,23.50
2019-04-20T16:14:49.406Z,23.80
2019-04-20T16:17:24.292Z,24.40
2019-04-20T16:20:06.001Z,25.00
2019-04-20T16:22:32.272Z,25.30
2019-04-20T16:25:19.272Z,25.90
2019-04-20T16:27:53.768Z,26.70
2019-04-20T16:30:27.567Z,27.40
2019-04-20T16:33:00.847Z,27.60
2019-04-20T16:35:34.252Z,27.90
2019-04-20T16:38:08.609Z,27.80
2019-04-20T16:40:42.118Z,28.20
2019-04-20T16:43:23.974Z,27.70
2019-04-20T16:45:50.992Z,28.20
2019-04-20T16:48:24.220Z,28.00
2019-04-20T16:50:58.684Z,28.50
2019-04-20T16:53:32.925Z,28.60
2019-04-20T16:56:06.583Z,28.90
2019-04-20T16:58:39.958Z,28.90
2019-04-20T17:01:13.761Z,29.20
2019-04-20T17:03:58.518Z,29.60
2019-04-20T17:06:22.268Z,29.70
2019-04-20T17:08:56.543Z,29.70
2019-04-20T17:11:29.997Z,30.00
2019-04-20T17:14:03.658Z,30.40
2019-04-20T17:16:37.672Z,30.60
2019-04-20T17:19:10.763Z,31.10
2019-04-20T17:21:44.542Z,31.60
2019-04-20T17:24:17.597Z,31.40
2019-04-20T17:27:08.866Z,31.40
2019-04-20T17:30:07.411Z,31.10
2019-04-20T17:32:41.250Z,31.10
2019-04-20T17:35:27.397Z,31.40
2019-04-20T17:37:50.352Z,31.50
2019-04-20T17:40:44.308Z,31.80
2019-04-20T17:43:06.528Z,32.50
2019-04-20T17:45:44.608Z,32.50
2019-04-20T17:48:27.002Z,32.40
2019-04-20T17:51:04.882Z,31.70
2019-04-20T17:53:46.642Z,31.90
2019-04-20T17:56:12.183Z,32.70
2019-04-20T17:58:46.114Z,33.30
2019-04-20T18:01:48.944Z,33.70
2019-04-20T18:04:46.527Z,34.20
2019-04-20T18:06:58.983Z,34.60
2019-04-20T18:09:46.471Z,35.30
2019-04-20T18:12:00.355Z,35.70
2019-04-20T18:14:46.655Z,36.20
2019-04-20T18:17:32.170Z,36.60
2019-04-20T18:20:03.113Z,36.80
2019-04-20T18:22:38.399Z,37.20
2019-04-20T18:25:29.735Z,37.20
2019-04-20T18:28:09.080Z,37.70
2019-04-20T18:30:48.814Z,38.10
2019-04-20T18:33:18.855Z,37.90
2019-04-20T18:35:52.226Z,37.90
2019-04-20T18:38:26.217Z,38.00
2019-04-20T18:41:05.569Z,38.50
2019-04-20T18:43:42.666Z,38.60
2019-04-20T18:46:29.351Z,38.90
2019-04-20T18:49:01.566Z,39.20
2019-04-20T18:51:19.651Z,39.10
2019-04-20T18:53:53.886Z,39.20
2019-04-20T18:56:32.359Z,39.50
2019-04-20T18:59:03.090Z,39.50
2019-04-20T19:01:39.563Z,39.50
2019-04-20T19:04:12.030Z,39.70
2019-04-20T19:06:45.930Z,39.90
2019-04-20T19:09:25.009Z,40.10
2019-04-20T19:12:00.830Z,40.20
2019-04-20T19:14:49.495Z,40.40
2019-04-20T19:18:06.983Z,40.60
2019-04-20T19:20:33.027Z,40.70
2019-04-20T19:23:06.324Z,40.70
2019-04-20T19:25:42.376Z,40.90
2019-04-20T19:28:19.461Z,41.00
2019-04-20T19:31:01.593Z,41.20
2019-04-20T19:33:37.831Z,41.20
2019-04-20T19:36:14.180Z,41.50
2019-04-20T19:38:47.767Z,41.70
2019-04-20T19:41:26.628Z,42.50
2019-04-20T19:43:55.003Z,42.10
2019-04-20T19:46:46.317Z,42.50
2019-04-20T19:49:04.144Z,42.50
2019-04-20T19:51:48.070Z,42.90
2019-04-20T19:54:23.857Z,43.00
2019-04-20T19:56:48.263Z,43.20
2019-04-20T19:59:23.579Z,43.40
2019-04-20T20:01:47.654Z,43.80
2019-04-20T20:04:21.721Z,44.00
2019-04-20T20:07:03.127Z,44.20
2019-04-20T20:09:39.575Z,44.30
2019-04-20T20:12:14.549Z,44.60
2019-04-20T20:14:50.016Z,44.90
2019-04-20T20:17:44.330Z,45.10
2019-04-20T20:20:20.000Z,45.20
2019-04-20T20:22:38.930Z,45.40
2019-04-20T20:25:07.192Z,45.60
2019-04-20T20:27:49.205Z,45.80
2019-04-20T20:30:24.474Z,46.00
2019-04-20T20:33:04.925Z,46.00
2019-04-20T20:35:27.694Z,46.20
2019-04-20T20:38:02.531Z,46.50
2019-04-20T20:40:38.489Z,46.60
2019-04-20T20:43:18.790Z,47.20
2019-04-20T20:46:00.282Z,46.90
2019-04-20T20:48:35.618Z,46.90
2019-04-20T20:51:09.175Z,47.00
2019-04-20T20:53:42.864Z,47.20
2019-04-20T20:56:15.131Z,47.30
2019-04-20T20:58:48.615Z,47.40
2019-04-20T21:01:22.239Z,47.60
2019-04-20T21:03:53.123Z,47.80
2019-04-20T21:06:24.400Z,48.00
2019-04-20T21:08:59.908Z,48.10
2019-04-20T21:11:34.811Z,48.50
2019-04-20T21:14:07.299Z,48.70
2019-04-20T21:16:46.863Z,49.10
2019-04-20T21:19:28.631Z,49.20
2019-04-20T21:21:58.963Z,49.60
2019-04-20T21:24:28.774Z,49.70
2019-04-20T21:27:07.821Z,49.90
2019-04-20T21:29:44.354Z,50.20
2019-04-20T21:32:14.747Z,50.60
2019-04-20T21:34:51.815Z,50.80
2019-04-20T21:37:24.987Z,51.40
2019-04-20T21:40:00.563Z,51.50
2019-04-20T21:42:39.993Z,51.60
2019-04-20T21:45:15.796Z,51.80
2019-04-20T21:47:43.570Z,52.00
2019-04-20T21:50:31.145Z,52.30
2019-04-20T21:52:55.141Z,52.50
2019-04-20T21:55:26.346Z,53.30
2019-04-20T21:58:00.829Z,53.00
2019-04-20T22:01:05.136Z,53.20
2019-04-20T22:03:27.923Z,53.70
2019-04-20T22:06:08.757Z,53.50
2019-04-20T22:08:49.375Z,53.50
2019-04-20T22:11:17.847Z,53.50
2019-04-20T22:13:52.770Z,53.70
2019-04-20T22:16:37.412Z,53.80
2019-04-20T22:19:16.111Z,53.90
2019-04-20T22:21:50.213Z,54.10
2019-04-20T22:24:43.803Z,53.90
2019-04-20T22:27:09.546Z,53.60
2019-04-20T22:29:38.523Z,53.70
2019-04-20T22:32:14.858Z,53.80
2019-04-20T22:34:54.075Z,54.10
2019-04-20T22:37:28.301Z,54.00
2019-04-20T22:39:58.328Z,54.00
2019-04-20T22:42:37.744Z,54.10
2019-04-20T22:45:11.826Z,54.30
2019-04-20T22:47:42.654Z,54.60
2019-04-20T22:50:33.599Z,54.70
2019-04-20T22:53:05.035Z,54.80
2019-04-20T22:55:50.142Z,55.00
2019-04-20T22:58:14.199Z,55.00
2019-04-20T23:00:42.177Z,55.20
2019-04-20T23:03:10.089Z,55.20
2019-04-20T23:05:42.960Z,55.30
2019-04-20T23:08:17.011Z,55.20
2019-04-20T23:10:51.337Z,55.30
2019-04-20T23:13:29.469Z,55.40
2019-04-20T23:16:02.199Z,55.40
2019-04-20T23:18:33.962Z,55.60
2019-04-20T23:21:10.253Z,55.60
2019-04-20T23:23:41.848Z,55.50
2019-04-20T23:26:19.331Z,55.40
2019-04-20T23:28:52.531Z,55.90
2019-04-20T23:31:26.645Z,55.60
2019-04-20T23:34:01.361Z,56.00
2019-04-20T23:36:39.041Z,56.10
2019-04-20T23:39:08.805Z,56.30
2019-04-20T23:41:51.759Z,56.40
2019-04-20T23:44:48.263Z,56.40
2019-04-20T23:47:32.031Z,56.50
2019-04-20T23:50:22.395Z,57.10
2019-04-20T23:53:05.516Z,57.80
2019-04-20T23:55:19.007Z,57.60
2019-04-20T23:57:58.031Z,58.00
